Time;durP1;ratioP1;P1;durP2;ratioP2;P2;SDS_P1;SDS_P2;PMS_P1;PMS_P2;Temp;Humidity;BMP_temperature;BMP_pressure;BME280_temperature;BME280_humidity;BME280_pressure;Samples;Min_cycle;Max_cycle;Signal;HPM_P1;HPM_P2
2021/09/28 00:00:35;;;;;;;24.23;11.20;;;16.70;97.30;;;;;;4991513;28;20472;-79
2021/09/28 00:03:01;;;;;;;23.30;10.63;;;16.70;97.30;;;;;;4991480;28;20499;-79
2021/09/28 00:05:27;;;;;;;28.57;10.90;;;16.70;97.30;;;;;;4991191;28;20926;-79
2021/09/28 00:07:52;;;;;;;22.37;11.03;;;16.60;97.30;;;;;;4990622;28;20656;-78
2021/09/28 00:10:18;;;;;;;17.60;9.50;;;16.60;97.30;;;;;;4992246;28;20423;-79
2021/09/28 00:12:44;;;;;;;22.10;10.33;;;16.60;97.30;;;;;;4991401;28;20186;-78
2021/09/28 00:15:11;;;;;;;21.47;11.70;;;16.60;97.30;;;;;;4992767;28;20201;-78
2021/09/28 00:17:37;;;;;;;23.57;10.43;;;16.60;97.30;;;;;;4991606;28;20184;-79
2021/09/28 00:20:05;;;;;;;20.00;10.77;;;16.60;97.30;;;;;;4991326;28;20427;-79
2021/09/28 00:22:31;;;;;;;22.77;10.93;;;16.60;97.30;;;;;;4991162;28;20439;-79
2021/09/28 00:24:56;;;;;;;22.40;10.70;;;16.60;97.30;;;;;;4990941;28;20429;-79
2021/09/28 00:27:23;;;;;;;22.60;9.00;;;16.60;97.30;;;;;;4991003;28;20182;-79
2021/09/28 00:29:48;;;;;;;26.53;10.47;;;16.60;97.30;;;;;;4990785;28;20189;-78
2021/09/28 00:32:14;;;;;;;22.10;11.77;;;16.60;97.30;;;;;;4990817;28;20783;-79
2021/09/28 00:34:40;;;;;;;23.70;11.07;;;16.60;97.30;;;;;;4992198;28;20284;-78
2021/09/28 00:37:06;;;;;;;24.30;11.97;;;16.50;97.30;;;;;;4990937;28;20181;-78
2021/09/28 00:39:32;;;;;;;26.20;11.17;;;16.60;97.30;;;;;;4991302;28;20472;-79
2021/09/28 00:41:58;;;;;;;27.90;10.77;;;16.50;97.30;;;;;;4992172;28;20448;-79
2021/09/28 00:44:40;;;;;;;28.43;11.03;;;16.60;97.30;;;;;;4990559;28;20295;-79
2021/09/28 00:47:10;;;;;;;22.93;10.30;;;16.60;97.30;;;;;;4990344;28;20272;-78
2021/09/28 00:49:43;;;;;;;19.07;10.57;;;16.60;97.30;;;;;;4990606;28;20428;-78
2021/09/28 00:52:15;;;;;;;27.20;11.50;;;16.60;97.30;;;;;;4992047;28;20488;-78
2021/09/28 00:54:43;;;;;;;24.87;11.10;;;16.60;97.30;;;;;;4990761;28;20556;-79
2021/09/28 00:57:09;;;;;;;23.60;10.83;;;16.60;97.30;;;;;;4990800;28;20416;-79
2021/09/28 00:59:35;;;;;;;20.20;11.03;;;16.50;97.30;;;;;;4990807;28;20511;-79
2021/09/28 01:02:02;;;;;;;21.93;10.73;;;16.60;97.30;;;;;;4990367;28;20703;-78
2021/09/28 01:04:28;;;;;;;20.80;9.90;;;16.50;97.30;;;;;;4990777;28;20842;-78
2021/09/28 01:06:54;;;;;;;28.23;10.70;;;16.50;97.30;;;;;;4990462;28;20428;-79
2021/09/28 01:09:19;;;;;;;17.03;9.93;;;16.50;97.30;;;;;;4990451;28;20186;-79
2021/09/28 01:11:46;;;;;;;20.73;9.50;;;16.50;97.30;;;;;;4990414;28;20277;-79
2021/09/28 01:14:11;;;;;;;19.40;10.53;;;16.50;97.30;;;;;;4990823;28;20284;-79
2021/09/28 01:16:37;;;;;;;23.20;10.53;;;16.50;97.30;;;;;;4990422;28;20524;-79
2021/09/28 01:19:02;;;;;;;25.83;11.93;;;16.50;97.30;;;;;;4992160;28;20170;-79
2021/09/28 01:21:29;;;;;;;21.17;10.47;;;16.50;97.30;;;;;;4994415;28;20174;-79
2021/09/28 01:23:55;;;;;;;22.47;11.23;;;16.40;97.30;;;;;;4993938;28;20233;-79
2021/09/28 01:26:24;;;;;;;20.73;11.00;;;16.40;97.30;;;;;;4994563;28;20429;-79
2021/09/28 01:28:51;;;;;;;23.80;10.37;;;16.40;97.30;;;;;;4993995;28;20448;-78
2021/09/28 01:31:18;;;;;;;30.20;11.63;;;16.40;97.30;;;;;;4994127;28;20421;-78
2021/09/28 01:33:43;;;;;;;28.23;11.17;;;16.40;97.30;;;;;;4994376;28;20445;-78
2021/09/28 01:36:09;;;;;;;22.87;10.93;;;16.40;97.30;;;;;;4995683;28;20456;-79
2021/09/28 01:38:35;;;;;;;25.73;10.20;;;16.40;97.30;;;;;;4995346;28;20270;-79
2021/09/28 01:41:00;;;;;;;26.07;10.87;;;16.30;97.30;;;;;;4993906;28;20181;-79
2021/09/28 01:43:26;;;;;;;23.17;10.07;;;16.30;97.30;;;;;;4994062;28;20628;-79
2021/09/28 01:45:57;;;;;;;20.70;10.40;;;16.30;97.30;;;;;;4993970;28;20186;-79
2021/09/28 01:48:36;;;;;;;28.27;11.50;;;16.30;97.30;;;;;;4994507;28;20324;-79
2021/09/28 01:51:01;;;;;;;16.60;8.60;;;16.30;97.30;;;;;;4997556;28;20424;-81
2021/09/28 01:53:27;;;;;;;16.60;4.97;;;16.20;97.30;;;;;;4997306;28;20528;-82
2021/09/28 01:55:52;;;;;;;8.53;4.10;;;16.10;97.30;;;;;;4996879;28;20209;-81
2021/09/28 01:58:18;;;;;;;5.50;2.70;;;16.00;97.30;;;;;;4997006;28;20375;-83
2021/09/28 02:00:44;;;;;;;3.13;2.27;;;16.00;97.30;;;;;;4998834;28;20217;-80
2021/09/28 02:03:10;;;;;;;3.13;2.10;;;15.90;97.30;;;;;;4997973;28;20301;-82
2021/09/28 02:05:36;;;;;;;3.53;1.70;;;15.80;97.30;;;;;;4998039;28;20420;-81
2021/09/28 02:08:02;;;;;;;2.37;1.77;;;15.70;97.30;;;;;;4997813;28;20456;-82
2021/09/28 02:10:28;;;;;;;2.87;1.47;;;15.70;97.30;;;;;;4998028;28;20292;-82
2021/09/28 02:12:54;;;;;;;3.60;1.83;;;15.60;97.30;;;;;;4997211;28;20469;-82
2021/09/28 02:15:20;;;;;;;1.37;1.33;;;15.60;97.30;;;;;;4997111;28;20465;-82
2021/09/28 02:17:45;;;;;;;1.93;1.00;;;15.50;97.30;;;;;;4998100;28;20178;-83
2021/09/28 02:20:11;;;;;;;2.60;1.30;;;15.40;97.30;;;;;;4998049;28;20278;-83
2021/09/28 02:22:37;;;;;;;2.73;1.53;;;15.40;97.30;;;;;;4996330;28;20644;-80
2021/09/28 02:25:05;;;;;;;2.80;1.53;;;15.40;97.30;;;;;;4996976;28;20231;-80
2021/09/28 02:27:30;;;;;;;3.17;1.50;;;15.30;97.30;;;;;;4996106;28;20424;-80
2021/09/28 02:29:56;;;;;;;2.70;1.40;;;15.30;97.30;;;;;;4996208;28;20953;-80
2021/09/28 02:32:22;;;;;;;4.00;1.70;;;15.30;97.30;;;;;;4995675;28;20182;-81
2021/09/28 02:34:47;;;;;;;3.37;1.87;;;15.30;97.30;;;;;;4995748;28;20468;-79
2021/09/28 02:37:13;;;;;;;5.17;2.23;;;15.30;97.30;;;;;;4997034;28;20178;-80
2021/09/28 02:39:42;;;;;;;4.20;2.30;;;15.30;97.30;;;;;;4996023;28;20733;-79
2021/09/28 02:42:09;;;;;;;5.00;2.27;;;15.30;97.30;;;;;;4996733;28;20167;-81
2021/09/28 02:44:35;;;;;;;6.20;2.47;;;15.20;97.30;;;;;;4995910;28;20437;-80
2021/09/28 02:47:01;;;;;;;2.53;2.10;;;15.20;97.30;;;;;;4995335;28;20454;-80
2021/09/28 02:49:27;;;;;;;2.50;2.07;;;15.20;97.30;;;;;;4995837;28;20185;-80
2021/09/28 02:51:52;;;;;;;4.30;2.33;;;15.20;97.30;;;;;;4996971;28;20950;-81
2021/09/28 02:54:18;;;;;;;8.63;2.80;;;15.20;97.30;;;;;;4996449;28;20202;-80
2021/09/28 02:56:43;;;;;;;7.87;3.07;;;15.10;97.30;;;;;;4995303;28;20177;-81
2021/09/28 02:59:09;;;;;;;4.53;2.60;;;15.10;97.30;;;;;;4996269;28;20184;-81
2021/09/28 03:01:34;;;;;;;7.97;2.97;;;15.10;97.30;;;;;;4997368;28;20245;-81
2021/09/28 03:04:00;;;;;;;5.00;2.77;;;15.10;97.30;;;;;;4996454;28;20658;-81
2021/09/28 03:06:26;;;;;;;3.87;2.73;;;15.10;97.30;;;;;;4995429;28;20182;-80
2021/09/28 03:08:51;;;;;;;3.97;2.70;;;15.10;97.30;;;;;;4995642;28;20174;-81
2021/09/28 03:11:17;;;;;;;5.17;3.10;;;15.10;97.30;;;;;;4996275;28;20185;-81
2021/09/28 03:13:42;;;;;;;6.40;3.00;;;15.10;97.30;;;;;;4995155;28;20700;-80
2021/09/28 03:16:08;;;;;;;6.13;2.90;;;15.10;97.30;;;;;;4995489;28;20205;-80
2021/09/28 03:18:34;;;;;;;5.83;3.00;;;15.10;97.30;;;;;;4995996;28;20655;-80
2021/09/28 03:20:59;;;;;;;4.53;2.70;;;15.10;97.30;;;;;;4996140;28;20269;-81
2021/09/28 03:23:25;;;;;;;4.90;3.07;;;15.00;97.30;;;;;;4995279;28;20212;-82
2021/09/28 03:25:51;;;;;;;2.67;2.10;;;15.00;97.30;;;;;;4995973;28;20186;-81
2021/09/28 03:28:17;;;;;;;5.67;3.03;;;15.00;97.30;;;;;;4995802;28;20647;-81
2021/09/28 03:30:43;;;;;;;5.17;2.90;;;15.00;97.30;;;;;;4995892;28;20416;-80
2021/09/28 03:33:09;;;;;;;6.37;2.60;;;15.00;97.30;;;;;;4995365;28;20435;-81
2021/09/28 03:35:34;;;;;;;4.80;2.70;;;15.00;97.30;;;;;;4995621;28;21032;-80
2021/09/28 03:38:00;;;;;;;5.87;2.80;;;15.00;97.30;;;;;;4994922;28;20265;-81
2021/09/28 03:40:29;;;;;;;3.20;2.23;;;15.00;97.30;;;;;;4994351;28;20437;-81
2021/09/28 03:42:56;;;;;;;5.40;2.50;;;15.00;97.30;;;;;;4994533;28;20690;-79
2021/09/28 03:45:21;;;;;;;4.67;2.20;;;15.00;97.30;;;;;;4994912;28;20556;-80
2021/09/28 03:47:47;;;;;;;5.90;2.77;;;15.00;97.30;;;;;;4993437;28;20417;-80
2021/09/28 03:50:13;;;;;;;11.80;2.97;;;15.00;97.30;;;;;;4993403;28;20178;-80
2021/09/28 03:52:38;;;;;;;3.73;3.20;;;15.00;97.30;;;;;;4994714;28;20182;-80
2021/09/28 03:55:05;;;;;;;6.23;2.87;;;15.00;97.30;;;;;;4993931;28;20225;-80
2021/09/28 03:57:31;;;;;;;7.23;3.53;;;15.10;97.30;;;;;;4994897;28;20182;-80
2021/09/28 03:59:57;;;;;;;4.60;3.73;;;15.10;97.30;;;;;;4993786;28;20486;-80
2021/09/28 04:02:22;;;;;;;11.00;4.07;;;15.10;97.30;;;;;;4994764;28;20179;-82
2021/09/28 04:04:48;;;;;;;10.03;4.00;;;15.00;97.30;;;;;;4994676;28;20445;-81
2021/09/28 04:07:14;;;;;;;7.47;3.57;;;15.00;97.30;;;;;;4993872;28;20186;-80
2021/09/28 04:09:40;;;;;;;7.37;4.97;;;15.00;97.30;;;;;;4993598;28;20201;-80
2021/09/28 04:12:07;;;;;;;10.90;5.47;;;15.10;97.30;;;;;;4993949;28;20424;-80
2021/09/28 04:14:33;;;;;;;10.50;6.30;;;15.10;97.30;;;;;;4994008;28;20264;-80
2021/09/28 04:16:58;;;;;;;13.57;6.20;;;15.00;97.30;;;;;;4993720;28;20903;-79
2021/09/28 04:19:24;;;;;;;11.60;6.60;;;15.00;97.30;;;;;;4994589;28;20174;-79
2021/09/28 04:21:49;;;;;;;9.00;5.40;;;15.00;97.30;;;;;;4993278;28;20631;-79
2021/09/28 04:24:15;;;;;;;10.43;5.50;;;15.00;97.30;;;;;;4992796;28;20231;-80
2021/09/28 04:26:40;;;;;;;11.43;5.43;;;15.00;97.30;;;;;;4992121;28;20190;-79
2021/09/28 04:29:06;;;;;;;10.97;5.20;;;15.00;97.30;;;;;;4994351;28;20182;-79
2021/09/28 04:31:32;;;;;;;9.23;4.57;;;15.00;97.30;;;;;;4993943;28;20182;-79
2021/09/28 04:33:58;;;;;;;6.20;4.47;;;15.00;97.30;;;;;;4992321;28;20209;-81
2021/09/28 04:36:23;;;;;;;13.70;5.03;;;15.00;97.30;;;;;;4995733;28;20271;-82
2021/09/28 04:38:50;;;;;;;7.43;3.97;;;15.00;97.30;;;;;;4995422;28;20174;-80
2021/09/28 04:41:16;;;;;;;7.13;4.00;;;14.90;97.30;;;;;;4993384;28;20200;-81
2021/09/28 04:43:42;;;;;;;7.80;4.20;;;14.90;97.30;;;;;;4993629;28;20445;-81
2021/09/28 04:46:08;;;;;;;7.37;4.20;;;14.90;97.30;;;;;;4993469;28;20421;-78
2021/09/28 04:48:33;;;;;;;9.77;4.07;;;14.80;97.30;;;;;;4993890;28;20423;-83
2021/09/28 04:50:59;;;;;;;7.70;3.83;;;14.80;97.30;;;;;;4994864;28;20189;-81
2021/09/28 04:53:25;;;;;;;5.17;3.57;;;14.70;97.30;;;;;;4994117;28;20256;-81
2021/09/28 04:55:57;;;;;;;7.23;3.70;;;14.70;97.30;;;;;;4993590;28;20213;-80
2021/09/28 04:58:24;;;;;;;5.67;3.63;;;14.60;97.30;;;;;;4994441;28;20260;-81
2021/09/28 05:00:51;;;;;;;7.00;3.80;;;14.60;97.30;;;;;;4994076;28;20460;-80
2021/09/28 05:03:16;;;;;;;6.47;3.60;;;14.60;97.30;;;;;;4994521;28;20436;-80
2021/09/28 05:05:42;;;;;;;4.97;3.07;;;14.60;97.30;;;;;;4994262;28;20417;-81
2021/09/28 05:08:08;;;;;;;6.90;3.63;;;14.50;97.30;;;;;;4995602;28;20186;-81
2021/09/28 05:10:34;;;;;;;10.40;3.47;;;14.50;97.30;;;;;;4995518;28;20920;-81
2021/09/28 05:12:59;;;;;;;5.83;3.00;;;14.50;97.30;;;;;;4994473;28;20204;-80
2021/09/28 05:15:25;;;;;;;7.03;3.13;;;14.50;97.30;;;;;;5005252;28;20202;-80
2021/09/28 05:17:51;;;;;;;4.53;2.73;;;14.40;97.30;;;;;;5015539;28;20188;-80
2021/09/28 05:20:17;;;;;;;7.13;2.93;;;14.40;97.30;;;;;;5012774;28;20216;-80
2021/09/28 05:22:43;;;;;;;3.70;2.93;;;14.40;97.30;;;;;;5013637;28;20709;-81
2021/09/28 05:25:09;;;;;;;5.90;2.90;;;14.40;97.30;;;;;;5014861;28;20420;-81
2021/09/28 05:27:34;;;;;;;3.57;2.80;;;14.40;97.30;;;;;;5014760;28;20208;-81
2021/09/28 05:30:00;;;;;;;8.93;3.30;;;14.40;97.30;;;;;;5015173;28;20181;-81
2021/09/28 05:32:25;;;;;;;5.23;2.80;;;14.40;97.30;;;;;;5015482;28;20185;-80
2021/09/28 05:34:51;;;;;;;7.33;3.10;;;14.40;97.30;;;;;;5014825;28;20314;-81
2021/09/28 05:37:16;;;;;;;5.57;3.03;;;14.40;97.30;;;;;;5015326;28;20186;-84
2021/09/28 05:39:42;;;;;;;9.40;3.67;;;14.40;97.30;;;;;;5015501;28;20243;-82
2021/09/28 05:42:09;;;;;;;5.60;2.87;;;14.40;97.30;;;;;;5015747;28;20200;-81
2021/09/28 05:44:34;;;;;;;6.63;4.03;;;14.40;97.30;;;;;;5015024;28;20205;-82
2021/09/28 05:47:00;;;;;;;9.43;4.13;;;14.40;97.30;;;;;;5014727;28;20765;-82
2021/09/28 05:49:26;;;;;;;7.73;3.67;;;14.40;97.30;;;;;;5017035;28;20180;-82
2021/09/28 05:51:53;;;;;;;8.53;4.43;;;14.40;97.30;;;;;;5014874;28;20185;-82
2021/09/28 05:54:20;;;;;;;9.13;3.90;;;14.40;97.30;;;;;;5016527;28;20229;-82
2021/09/28 05:56:47;;;;;;;7.00;4.47;;;14.40;97.30;;;;;;5014950;28;20408;-81
2021/09/28 05:59:13;;;;;;;9.97;4.70;;;14.40;97.30;;;;;;5014710;28;20431;-81
2021/09/28 06:01:38;;;;;;;10.63;4.70;;;14.40;97.30;;;;;;5015952;28;20463;-82
2021/09/28 06:04:04;;;;;;;14.63;4.83;;;14.40;97.30;;;;;;5015217;28;20288;-82
2021/09/28 06:06:30;;;;;;;9.07;4.93;;;14.40;97.30;;;;;;5015993;28;20192;-81
2021/09/28 06:08:57;;;;;;;11.03;5.20;;;14.40;97.30;;;;;;5019446;28;20196;-82
2021/09/28 06:11:23;;;;;;;10.20;5.57;;;14.40;97.30;;;;;;5018498;28;20416;-81
2021/09/28 06:13:50;;;;;;;10.57;5.50;;;14.40;97.30;;;;;;5019349;28;20470;-82
2021/09/28 06:16:16;;;;;;;15.77;5.40;;;14.50;97.30;;;;;;5018566;28;20266;-80
2021/09/28 06:18:42;;;;;;;11.33;4.93;;;14.40;97.30;;;;;;5018192;28;20416;-81
2021/09/28 06:21:08;;;;;;;11.30;5.90;;;14.50;97.30;;;;;;5020477;28;20495;-82
2021/09/28 06:23:33;;;;;;;14.83;6.10;;;14.50;97.30;;;;;;5018748;28;20200;-83
2021/09/28 06:25:59;;;;;;;26.43;6.80;;;14.50;97.30;;;;;;5020223;28;20448;-80
2021/09/28 06:28:24;;;;;;;20.60;6.90;;;14.50;97.30;;;;;;5019729;28;20263;-82
2021/09/28 06:30:53;;;;;;;14.90;6.23;;;14.50;97.30;;;;;;5021993;28;20272;-82
2021/09/28 06:33:19;;;;;;;14.47;5.77;;;14.50;97.30;;;;;;5022615;28;20197;-81
2021/09/28 06:35:45;;;;;;;16.93;7.03;;;14.50;97.30;;;;;;5018560;28;20878;-82
2021/09/28 06:38:10;;;;;;;13.07;7.40;;;14.50;97.30;;;;;;5018562;28;20623;-82
2021/09/28 06:40:36;;;;;;;10.60;6.63;;;14.50;97.30;;;;;;5017558;28;20181;-82
2021/09/28 06:43:02;;;;;;;20.50;6.83;;;14.50;97.30;;;;;;5018559;28;20193;-81
2021/09/28 06:45:27;;;;;;;14.60;6.83;;;14.60;97.30;;;;;;5017943;28;20191;-81
2021/09/28 06:47:53;;;;;;;20.20;7.03;;;14.60;97.30;;;;;;5020136;28;20546;-81
2021/09/28 06:50:19;;;;;;;10.57;6.73;;;14.60;97.30;;;;;;5018350;28;20188;-81
2021/09/28 06:52:45;;;;;;;13.80;6.70;;;14.70;97.30;;;;;;5017867;28;20232;-83
2021/09/28 06:55:11;;;;;;;10.97;7.07;;;14.70;97.30;;;;;;5034921;28;20296;-81
2021/09/28 06:57:37;;;;;;;19.37;7.83;;;14.70;97.30;;;;;;5018524;28;20503;-80
2021/09/28 07:00:04;;;;;;;15.77;7.03;;;14.70;97.30;;;;;;5015266;28;20896;-80
2021/09/28 07:02:30;;;;;;;16.77;7.43;;;14.70;97.30;;;;;;5015858;28;20348;-80
2021/09/28 07:04:56;;;;;;;14.07;7.90;;;14.80;97.30;;;;;;5015765;28;20423;-82
2021/09/28 07:07:24;;;;;;;15.10;7.87;;;14.80;97.30;;;;;;5015976;28;20336;-80
2021/09/28 07:09:49;;;;;;;19.83;8.37;;;14.80;97.30;;;;;;5033127;28;20887;-83
2021/09/28 07:12:15;;;;;;;16.23;7.83;;;14.80;97.30;;;;;;5016552;28;20424;-81
2021/09/28 07:14:41;;;;;;;15.27;7.37;;;14.80;97.30;;;;;;5016925;28;20217;-81
2021/09/28 07:17:06;;;;;;;18.07;6.47;;;14.80;97.30;;;;;;5017989;28;20177;-80
2021/09/28 07:19:32;;;;;;;12.60;6.20;;;14.80;97.30;;;;;;5016691;28;20220;-81
2021/09/28 07:22:00;;;;;;;11.80;6.47;;;14.80;97.30;;;;;;5017530;28;20180;-81
2021/09/28 07:24:25;;;;;;;15.13;5.77;;;14.80;97.30;;;;;;5033919;28;20778;-82
2021/09/28 07:26:51;;;;;;;13.33;6.50;;;14.80;97.30;;;;;;5017532;28;20461;-81
2021/09/28 07:29:17;;;;;;;9.90;5.90;;;14.80;97.30;;;;;;5015805;28;20188;-84
2021/09/28 07:31:43;;;;;;;9.07;5.40;;;14.80;97.30;;;;;;5016935;28;20417;-82
2021/09/28 07:34:09;;;;;;;8.27;4.90;;;14.80;97.30;;;;;;4996551;28;20810;-81
2021/09/28 07:36:36;;;;;;;8.03;4.60;;;14.80;97.30;;;;;;4996111;28;20209;-82
2021/09/28 07:39:02;;;;;;;8.97;4.77;;;14.70;97.30;;;;;;4998586;28;20409;-81
2021/09/28 07:41:28;;;;;;;15.17;6.17;;;14.60;97.30;;;;;;4997433;28;20413;-82
2021/09/28 07:43:55;;;;;;;16.53;6.37;;;14.60;97.30;;;;;;4999474;28;20440;-84
2021/09/28 07:46:20;;;;;;;21.37;7.50;;;14.60;97.30;;;;;;5017420;28;20181;-82
2021/09/28 07:48:46;;;;;;;14.30;7.50;;;14.60;97.30;;;;;;5018793;28;20793;-81
2021/09/28 07:51:12;;;;;;;15.20;7.13;;;14.60;97.30;;;;;;5018937;28;20177;-82
2021/09/28 07:53:38;;;;;;;17.60;7.10;;;14.60;97.30;;;;;;5019071;28;20668;-82
2021/09/28 07:56:04;;;;;;;13.60;7.73;;;14.60;97.30;;;;;;5019155;28;20456;-81
2021/09/28 07:58:30;;;;;;;15.93;6.40;;;14.60;97.30;;;;;;5020001;28;20511;-80
2021/09/28 08:00:56;;;;;;;12.10;6.50;;;14.60;97.30;;;;;;5016329;28;20468;-84
2021/09/28 08:03:21;;;;;;;11.30;5.87;;;14.60;97.30;;;;;;4997269;28;20519;-84
2021/09/28 08:05:50;;;;;;;17.50;6.70;;;14.60;97.30;;;;;;4994495;28;20185;-85
2021/09/28 08:08:16;;;;;;;15.57;5.77;;;14.60;97.30;;;;;;4994624;28;20184;-84
2021/09/28 08:10:42;;;;;;;9.90;5.23;;;14.60;97.30;;;;;;5001426;28;20417;-84
2021/09/28 08:13:10;;;;;;;12.40;6.17;;;14.60;97.30;;;;;;4993004;28;20444;-84
2021/09/28 08:15:36;;;;;;;14.07;6.47;;;14.60;97.30;;;;;;4992143;28;20190;-84
2021/09/28 08:18:03;;;;;;;14.40;6.57;;;14.60;97.30;;;;;;4994802;28;20409;-84
2021/09/28 08:20:29;;;;;;;12.50;7.63;;;14.60;97.30;;;;;;4993776;28;20892;-84
2021/09/28 08:22:57;;;;;;;13.87;8.17;;;14.70;97.30;;;;;;4993016;28;20473;-84
2021/09/28 08:25:33;;;;;;;15.13;8.77;;;14.70;97.30;;;;;;4994739;28;20177;-84
2021/09/28 08:30:44;;;;;;;15.77;8.87;;;14.80;97.30;;;;;;4994034;28;20396;-85
2021/09/28 08:33:09;;;;;;;15.57;8.77;;;14.90;97.30;;;;;;4992752;28;20813;-84
2021/09/28 08:35:35;;;;;;;20.93;9.97;;;14.90;97.30;;;;;;4994228;28;20209;-84
2021/09/28 08:38:01;;;;;;;19.43;9.10;;;14.90;97.30;;;;;;4993087;28;20260;-83
2021/09/28 08:40:27;;;;;;;25.53;10.07;;;14.90;97.30;;;;;;4993311;28;20814;-84
2021/09/28 08:42:55;;;;;;;22.77;9.70;;;14.90;97.30;;;;;;4993164;28;20491;-84
2021/09/28 08:45:21;;;;;;;18.20;9.43;;;14.90;97.30;;;;;;4993301;28;20185;-84
2021/09/28 08:47:47;;;;;;;19.17;10.07;;;15.00;97.30;;;;;;4992938;28;20419;-84
2021/09/28 08:50:17;;;;;;;20.73;9.87;;;15.00;97.30;;;;;;5013065;28;20424;-84
2021/09/28 08:52:44;;;;;;;20.40;10.03;;;15.00;97.30;;;;;;5013616;28;20183;-84
2021/09/28 08:55:10;;;;;;;18.37;9.60;;;15.10;97.30;;;;;;5011573;28;20531;-84
2021/09/28 08:57:38;;;;;;;27.83;10.40;;;15.10;97.30;;;;;;5018138;28;20876;-85
2021/09/28 09:00:20;;;;;;;23.47;10.43;;;15.10;97.30;;;;;;5013002;28;20468;-84
2021/09/28 09:02:47;;;;;;;25.57;11.10;;;15.10;97.30;;;;;;5012015;28;20456;-84
2021/09/28 09:05:14;;;;;;;23.83;11.67;;;15.10;97.30;;;;;;5013716;28;20435;-84
2021/09/28 09:07:41;;;;;;;21.43;9.77;;;15.10;97.30;;;;;;5013716;28;20420;-81
2021/09/28 09:10:08;;;;;;;24.33;11.00;;;15.20;97.30;;;;;;5031825;28;20805;-81
2021/09/28 09:12:39;;;;;;;25.10;11.90;;;15.20;97.30;;;;;;5004780;28;21188;-86
2021/09/28 09:15:33;;;;;;;19.43;10.43;;;15.20;97.30;;;;;;5004135;28;20452;-87
2021/09/28 09:18:05;;;;;;;19.37;10.80;;;15.20;97.30;;;;;;4999445;28;20449;-87
2021/09/28 09:20:34;;;;;;;22.80;10.30;;;15.20;97.30;;;;;;5009271;28;20491;-80
2021/09/28 09:23:44;;;;;;;21.87;11.20;;;15.20;97.30;;;;;;5026960;28;20487;-86
2021/09/28 09:26:15;;;;;;;19.90;10.07;;;15.20;97.30;;;;;;5000385;28;20438;-87
2021/09/28 09:29:03;;;;;;;21.63;9.70;;;15.30;97.30;;;;;;5001884;28;20458;-86
2021/09/28 09:31:35;;;;;;;25.63;11.60;;;15.30;97.30;;;;;;5009508;28;20416;-86
2021/09/28 09:34:13;;;;;;;19.97;10.80;;;15.40;97.30;;;;;;5012963;28;20494;-86
2021/09/28 09:36:39;;;;;;;16.30;9.80;;;15.50;97.30;;;;;;5010311;28;20928;-86
2021/09/28 09:39:09;;;;;;;13.10;9.07;;;15.50;97.30;;;;;;5001653;28;20709;-86
2021/09/28 09:41:35;;;;;;;19.57;8.83;;;15.50;97.30;;;;;;5013733;28;20184;-86
2021/09/28 09:44:05;;;;;;;13.53;7.73;;;15.60;97.30;;;;;;5016277;28;20499;-88
2021/09/28 09:46:47;;;;;;;14.90;8.20;;;15.60;97.30;;;;;;5014769;28;20828;-86
2021/09/28 09:49:22;;;;;;;17.23;8.40;;;15.60;97.30;;;;;;5002789;28;20433;-86
2021/09/28 09:51:54;;;;;;;12.30;7.87;;;15.60;97.30;;;;;;5003118;28;20432;-86
2021/09/28 09:54:51;;;;;;;12.40;7.17;;;15.70;97.30;;;;;;5009369;28;20459;-86
2021/09/28 09:57:18;;;;;;;14.53;6.80;;;15.70;97.30;;;;;;5006386;28;20842;-86
2021/09/28 09:59:43;;;;;;;14.60;7.10;;;15.80;97.30;;;;;;5010800;28;20831;-86
2021/09/28 10:02:09;;;;;;;14.60;7.47;;;15.80;97.30;;;;;;4994945;28;20409;-86
2021/09/28 10:04:35;;;;;;;13.77;7.23;;;15.90;97.30;;;;;;4997815;28;20567;-87
2021/09/28 10:07:01;;;;;;;13.40;7.30;;;15.90;97.30;;;;;;5003228;28;20409;-85
2021/09/28 10:09:38;;;;;;;13.23;7.27;;;16.00;97.30;;;;;;5005370;28;20180;-86
2021/09/28 10:12:07;;;;;;;11.00;7.47;;;16.00;97.30;;;;;;5026580;28;20439;-86
2021/09/28 10:14:44;;;;;;;16.23;7.93;;;16.10;97.30;;;;;;5003019;28;20444;-86
2021/09/28 10:17:35;;;;;;;15.37;7.50;;;16.20;97.30;;;;;;5014010;28;20419;-86
2021/09/28 10:20:03;;;;;;;20.07;7.77;;;16.20;97.30;;;;;;5030587;28;20413;-86
2021/09/28 10:22:35;;;;;;;15.17;8.10;;;16.20;97.30;;;;;;4999500;28;20405;-86
2021/09/28 10:25:20;;;;;;;11.77;7.03;;;16.20;97.30;;;;;;4994693;28;20429;-87
2021/09/28 10:28:03;;;;;;;13.07;7.90;;;16.20;97.30;;;;;;4994439;28;20540;-86
2021/09/28 10:30:35;;;;;;;12.03;8.17;;;16.30;97.30;;;;;;4995760;28;20421;-85
2021/09/28 10:33:02;;;;;;;14.37;7.40;;;16.30;97.30;;;;;;4998230;28;20445;-85
2021/09/28 10:35:29;;;;;;;14.73;8.53;;;16.30;97.30;;;;;;5003764;28;20468;-86
2021/09/28 10:38:03;;;;;;;16.23;7.87;;;16.40;97.30;;;;;;5012044;28;20428;-86
2021/09/28 10:40:32;;;;;;;12.80;7.80;;;16.50;97.30;;;;;;5005205;28;20429;-86
2021/09/28 10:43:09;;;;;;;13.57;7.67;;;16.50;97.30;;;;;;5019993;28;20865;-86
2021/09/28 10:45:38;;;;;;;19.53;7.70;;;16.50;97.30;;;;;;5005317;28;20419;-85
2021/09/28 10:48:09;;;;;;;13.97;8.03;;;16.50;97.30;;;;;;4998408;28;20513;-80
2021/09/28 10:50:40;;;;;;;10.03;6.60;;;16.50;97.30;;;;;;5000782;28;20423;-81
2021/09/28 10:53:19;;;;;;;21.60;8.33;;;16.50;97.30;;;;;;5005910;28;20527;-80
2021/09/28 10:55:59;;;;;;;11.07;6.70;;;16.50;97.30;;;;;;5030990;28;20583;-81
2021/09/28 10:58:27;;;;;;;11.50;7.77;;;16.60;97.30;;;;;;5015217;28;20419;-81
2021/09/28 11:00:56;;;;;;;13.50;7.20;;;16.60;97.30;;;;;;5016133;28;21008;-80
2021/09/28 11:03:43;;;;;;;11.67;6.40;;;16.70;97.30;;;;;;5032226;28;20432;-80
2021/09/28 11:06:10;;;;;;;15.37;7.10;;;16.70;97.30;;;;;;5030582;28;20423;-80
2021/09/28 11:08:36;;;;;;;7.80;6.00;;;16.70;97.30;;;;;;5013997;28;20789;-80
2021/09/28 11:11:10;;;;;;;8.07;6.00;;;16.70;97.30;;;;;;5014003;28;20416;-79
2021/09/28 11:13:38;;;;;;;14.30;6.00;;;16.80;97.30;;;;;;5014056;28;20981;-80
2021/09/28 11:16:07;;;;;;;11.53;7.13;;;16.80;97.30;;;;;;5012994;28;20456;-80
2021/09/28 11:18:33;;;;;;;16.00;6.87;;;17.00;97.30;;;;;;5013733;28;20412;-80
2021/09/28 11:21:13;;;;;;;11.73;6.07;;;17.10;97.30;;;;;;5014362;28;20507;-80
2021/09/28 11:23:41;;;;;;;9.37;5.70;;;17.10;97.30;;;;;;5031078;28;20482;-80
2021/09/28 11:26:07;;;;;;;13.20;5.80;;;17.20;97.30;;;;;;5014668;28;20488;-81
2021/09/28 11:28:33;;;;;;;11.70;6.00;;;17.20;97.30;;;;;;5005766;28;20445;-79
2021/09/28 11:31:03;;;;;;;7.83;4.70;;;17.20;97.30;;;;;;4993616;28;20174;-79
2021/09/28 11:33:36;;;;;;;11.20;4.43;;;17.30;97.30;;;;;;4994358;28;20580;-80
2021/09/28 11:36:08;;;;;;;10.83;4.63;;;17.30;97.30;;;;;;4993065;28;21012;-80
2021/09/28 11:38:36;;;;;;;6.43;4.17;;;17.40;97.30;;;;;;4997772;28;20956;-80
2021/09/28 11:41:13;;;;;;;8.57;5.33;;;17.40;97.30;;;;;;5014467;28;20420;-80
2021/09/28 11:43:40;;;;;;;13.67;5.20;;;17.40;97.30;;;;;;5030539;28;20526;-80
2021/09/28 11:46:08;;;;;;;8.10;4.93;;;17.50;97.30;;;;;;5014047;28;20996;-80
2021/09/28 11:48:48;;;;;;;12.97;4.80;;;17.50;97.30;;;;;;5029709;28;20495;-79
2021/09/28 11:51:24;;;;;;;4.97;3.70;;;17.50;97.30;;;;;;5013905;28;20416;-81
2021/09/28 11:53:55;;;;;;;10.67;3.20;;;17.40;97.30;;;;;;5014154;28;20815;-80
2021/09/28 11:56:22;;;;;;;11.83;3.53;;;17.40;97.30;;;;;;5013554;28;20448;-80
2021/09/28 11:58:50;;;;;;;7.13;3.70;;;17.40;97.30;;;;;;5012441;28;20423;-79
2021/09/28 12:01:17;;;;;;;12.60;3.60;;;17.50;97.30;;;;;;5012164;28;20471;-80
2021/09/28 12:07:04;;;;;;;7.30;3.30;;;17.70;97.30;;;;;;5014639;28;20404;-80
2021/09/28 12:09:38;;;;;;;9.10;2.90;;;17.80;97.30;;;;;;5014855;28;20388;-80
2021/09/28 12:12:08;;;;;;;5.70;3.53;;;18.00;97.30;;;;;;5030930;28;20515;-81
2021/09/28 12:14:36;;;;;;;6.77;2.70;;;18.10;97.30;;;;;;5014411;28;20535;-81
2021/09/28 12:17:11;;;;;;;6.70;2.53;;;18.20;97.30;;;;;;5011275;28;20917;-79
2021/09/28 12:19:37;;;;;;;4.87;2.90;;;18.40;97.30;;;;;;5010288;28;20436;-79
2021/09/28 12:22:03;;;;;;;5.43;2.53;;;18.50;97.30;;;;;;5011783;28;20408;-78
2021/09/28 12:24:49;;;;;;;5.70;3.20;;;18.60;97.30;;;;;;5010673;28;20447;-79
2021/09/28 12:27:14;;;;;;;4.93;2.60;;;18.70;97.30;;;;;;5009764;28;20180;-78
2021/09/28 12:29:46;;;;;;;7.80;3.43;;;18.90;97.30;;;;;;5009509;28;20424;-79
2021/09/28 12:32:23;;;;;;;6.03;3.50;;;19.00;97.30;;;;;;5010453;28;20191;-78
2021/09/28 12:34:54;;;;;;;7.10;3.27;;;19.00;97.30;;;;;;5010600;28;20490;-77
2021/09/28 12:37:21;;;;;;;6.77;3.00;;;18.90;97.30;;;;;;5011247;28;20428;-76
2021/09/28 12:40:07;;;;;;;5.60;3.20;;;18.90;97.30;;;;;;5010288;28;20922;-76
2021/09/28 12:42:34;;;;;;;5.47;2.27;;;18.90;97.30;;;;;;5011638;28;20416;-78
2021/09/28 12:45:11;;;;;;;3.67;2.10;;;18.90;97.30;;;;;;5010553;28;20421;-77
2021/09/28 12:47:45;;;;;;;8.70;2.80;;;18.90;97.30;;;;;;5010503;28;20448;-78